createdAt,value
2019-05-21T00:00:58.790Z,97530.58
2019-05-21T00:06:06.220Z,97527.90
2019-05-21T00:11:13.794Z,97539.98
2019-05-21T00:16:21.256Z,97538.72
2019-05-21T00:21:28.709Z,97535.12
2019-05-21T00:26:37.141Z,97536.26
2019-05-21T00:32:37.842Z,97538.83
2019-05-21T00:38:38.715Z,97540.61
2019-05-21T00:43:59.137Z,97553.53
2019-05-21T00:49:06.554Z,97561.57
2019-05-21T00:54:13.966Z,97579.44
2019-05-21T00:59:24.202Z,97578.11
2019-05-21T01:04:31.663Z,97585.77
2019-05-21T01:09:38.961Z,97599.27
2019-05-21T01:14:46.461Z,97589.89
2019-05-21T01:19:53.800Z,97595.17
2019-05-21T01:25:01.209Z,97601.78
2019-05-21T01:30:10.261Z,97604.31
2019-05-21T01:35:17.772Z,97604.53
2019-05-21T01:40:25.161Z,97605.08
2019-05-21T01:45:32.689Z,97603.13
2019-05-21T01:50:40.189Z,97605.92
2019-05-21T01:55:47.617Z,97608.17
2019-05-21T02:00:54.963Z,97617.66
2019-05-21T02:06:02.322Z,97612.81
2019-05-21T02:11:09.827Z,97607.58
2019-05-21T02:16:17.295Z,97606.58
2019-05-21T02:21:24.727Z,97603.30
2019-05-21T02:26:32.075Z,97615.17
2019-05-21T02:31:39.483Z,97609.91
2019-05-21T02:36:46.879Z,97621.20
2019-05-21T02:41:54.330Z,97616.52
2019-05-21T02:47:01.829Z,97629.69
2019-05-21T02:52:09.227Z,97625.06
2019-05-21T02:57:16.740Z,97624.73
2019-05-21T03:02:39.025Z,97632.73
2019-05-21T03:07:46.450Z,97626.94
2019-05-21T03:12:53.964Z,97633.10
2019-05-21T03:18:01.296Z,97631.81
2019-05-21T03:23:08.693Z,97630.39
2019-05-21T03:28:16.154Z,97630.20
2019-05-21T03:33:23.615Z,97628.47
2019-05-21T03:38:31.123Z,97619.81
2019-05-21T03:43:38.612Z,97630.20
2019-05-21T03:48:46.449Z,97629.94
2019-05-21T03:53:53.771Z,97629.02
2019-05-21T03:59:01.212Z,97627.03
2019-05-21T04:04:08.637Z,97628.67
2019-05-21T04:09:15.962Z,97626.53
2019-05-21T04:14:40.267Z,97635.94
2019-05-21T04:19:48.344Z,97635.58
2019-05-21T04:24:55.731Z,97636.05
2019-05-21T04:30:03.206Z,97647.41
2019-05-21T04:35:10.761Z,97653.95
2019-05-21T04:40:18.381Z,97650.30
2019-05-21T04:45:25.837Z,97656.77
2019-05-21T04:50:33.232Z,97661.50
2019-05-21T04:55:41.578Z,97679.52
2019-05-21T05:00:48.968Z,97684.58
2019-05-21T05:05:57.349Z,97683.31
2019-05-21T05:11:04.821Z,97686.31
2019-05-21T05:16:12.218Z,97689.91
2019-05-21T05:21:19.547Z,97686.35
2019-05-21T05:26:26.891Z,97692.66
2019-05-21T05:31:34.318Z,97697.36
2019-05-21T05:36:41.638Z,97700.84
2019-05-21T05:41:49.066Z,97700.67
2019-05-21T05:46:56.500Z,97709.54
2019-05-21T05:52:03.928Z,97709.61
2019-05-21T05:57:11.977Z,97704.67
2019-05-21T06:02:19.445Z,97706.17
2019-05-21T06:07:26.846Z,97707.02
2019-05-21T06:12:34.435Z,97699.81
2019-05-21T06:17:41.830Z,97699.21
2019-05-21T06:22:49.267Z,97708.57
2019-05-21T06:27:56.728Z,97707.20
2019-05-21T06:33:04.130Z,97715.72
2019-05-21T06:38:17.696Z,97705.20
2019-05-21T06:43:22.375Z,97700.36
2019-05-21T06:48:29.703Z,97698.33
2019-05-21T06:53:37.210Z,97705.30
2019-05-21T06:58:44.748Z,97710.44
2019-05-21T07:03:52.255Z,97718.32
2019-05-21T07:08:59.609Z,97721.94
2019-05-21T07:14:07.180Z,97725.63
2019-05-21T07:19:14.537Z,97732.14
2019-05-21T07:24:21.941Z,97748.93
2019-05-21T07:29:29.451Z,97754.16
2019-05-21T07:34:36.880Z,97755.69
2019-05-21T07:39:44.308Z,97752.09
2019-05-21T07:44:51.660Z,97756.59
2019-05-21T07:49:59.072Z,97755.28
2019-05-21T07:55:07.318Z,97766.69
2019-05-21T08:00:17.005Z,97774.47
2019-05-21T08:05:24.571Z,97781.72
2019-05-21T08:10:31.998Z,97774.15
2019-05-21T08:15:39.457Z,97775.07
2019-05-21T08:20:46.859Z,97787.12
2019-05-21T08:25:54.251Z,97783.58
2019-05-21T08:31:02.461Z,97786.14
2019-05-21T08:36:10.001Z,97794.69
2019-05-21T08:41:17.382Z,97799.62
2019-05-21T08:46:24.773Z,97802.89
2019-05-21T08:51:32.370Z,97800.91
2019-05-21T08:56:40.137Z,97815.30
2019-05-21T09:01:47.711Z,97810.16
2019-05-21T09:06:55.154Z,97809.80
2019-05-21T09:12:02.600Z,97805.22
2019-05-21T09:17:10.029Z,97803.21
2019-05-21T09:22:17.430Z,97803.36
2019-05-21T09:27:24.870Z,97800.99
2019-05-21T09:38:37.878Z,97811.06
2019-05-21T09:43:45.314Z,97808.56
2019-05-21T09:48:55.563Z,97825.36
2019-05-21T09:54:01.806Z,97814.27
2019-05-21T09:59:28.623Z,97814.17
2019-05-21T10:04:36.008Z,97821.48
2019-05-21T10:09:43.416Z,97807.30
2019-05-21T10:14:51.933Z,97817.54
2019-05-21T10:19:59.333Z,97821.60
2019-05-21T10:25:07.099Z,97819.95
2019-05-21T10:30:14.885Z,97821.48
2019-05-21T10:35:22.399Z,97832.81
2019-05-21T10:40:29.797Z,97831.34
2019-05-21T10:45:36.780Z,97839.04
2019-05-21T10:50:44.126Z,97845.24
2019-05-21T10:55:51.544Z,97852.06
2019-05-21T11:01:06.175Z,97858.38
2019-05-21T11:06:14.404Z,97860.52
2019-05-21T11:11:21.949Z,97863.85
2019-05-21T11:16:29.348Z,97865.42
2019-05-21T11:21:36.724Z,97858.65
2019-05-21T11:26:44.146Z,97864.22
2019-05-21T11:31:57.193Z,97864.86
2019-05-21T11:37:00.505Z,97866.25
2019-05-21T11:42:08.026Z,97860.48
2019-05-21T11:48:03.313Z,97858.27
2019-05-21T11:52:26.417Z,97861.63
2019-05-21T11:57:34.083Z,97860.80
2019-05-21T12:02:42.266Z,97861.82
2019-05-21T12:07:49.891Z,97868.92
2019-05-21T12:12:57.448Z,97870.30
2019-05-21T12:18:04.988Z,97873.66
2019-05-21T12:23:12.437Z,97877.47
2019-05-21T12:28:19.862Z,97868.89
2019-05-21T12:33:27.425Z,97863.87
2019-05-21T12:38:35.727Z,97859.56
2019-05-21T12:43:43.257Z,97860.31
2019-05-21T12:48:53.834Z,97867.98
2019-05-21T12:54:01.418Z,97863.07
2019-05-21T12:59:08.776Z,97856.11
2019-05-21T13:04:16.416Z,97860.69
2019-05-21T13:09:32.950Z,97856.05
2019-05-21T13:14:33.488Z,97855.30
2019-05-21T13:19:41.156Z,97852.45
2019-05-21T13:24:49.195Z,97850.86
2019-05-21T13:29:56.840Z,97847.77
2019-05-21T13:35:04.667Z,97849.56
2019-05-21T13:40:14.056Z,97862.97
2019-05-21T13:45:21.732Z,97862.80
2019-05-21T13:50:29.215Z,97869.36
2019-05-21T13:55:36.548Z,97869.16
2019-05-21T14:00:48.901Z,97876.95
2019-05-21T14:05:56.351Z,97871.91
2019-05-21T14:11:04.184Z,97873.70
2019-05-21T14:16:11.896Z,97879.52
2019-05-21T14:21:19.830Z,97875.59
2019-05-21T14:26:27.724Z,97884.97
2019-05-21T14:31:36.255Z,97881.00
2019-05-21T14:36:43.617Z,97887.70
2019-05-21T14:41:50.992Z,97891.88
2019-05-21T14:46:58.367Z,97885.06
2019-05-21T14:52:06.570Z,97891.03
2019-05-21T14:57:14.000Z,97891.64
2019-05-21T15:02:21.652Z,97887.51
2019-05-21T15:07:29.070Z,97891.80
2019-05-21T15:12:36.898Z,97883.77
2019-05-21T15:17:44.896Z,97892.03
2019-05-21T15:22:52.577Z,97886.88
2019-05-21T15:28:00.031Z,97890.19
2019-05-21T15:33:08.051Z,97886.98
2019-05-21T15:38:15.479Z,97893.03
2019-05-21T15:43:23.066Z,97900.72
2019-05-21T15:48:30.505Z,97897.95
2019-05-21T15:53:37.995Z,97907.53
2019-05-21T15:58:45.363Z,97909.48
2019-05-21T16:03:52.823Z,97911.34
2019-05-21T16:09:00.382Z,97914.87
2019-05-21T16:14:08.047Z,97916.06
2019-05-21T16:19:18.231Z,97917.92
2019-05-21T16:24:26.184Z,97917.44
2019-05-21T16:29:39.689Z,97912.70
2019-05-21T16:34:48.540Z,97917.13
2019-05-21T16:39:56.391Z,97912.42
2019-05-21T16:45:04.131Z,97916.78
2019-05-21T16:50:13.443Z,97915.70
2019-05-21T16:55:21.077Z,97915.14
2019-05-21T17:00:29.708Z,97918.15
2019-05-21T17:05:38.417Z,97934.75
2019-05-21T17:10:46.386Z,97930.35
2019-05-21T17:15:53.954Z,97940.37
2019-05-21T17:21:02.893Z,97945.45
2019-05-21T17:26:13.738Z,97946.70
2019-05-21T17:31:21.759Z,97958.84
2019-05-21T17:36:29.143Z,97963.53
2019-05-21T17:41:36.731Z,97959.91
2019-05-21T17:46:43.977Z,97956.88
2019-05-21T17:51:51.329Z,97968.39
2019-05-21T17:56:58.683Z,97968.31
2019-05-21T18:02:08.045Z,97967.56
2019-05-21T18:07:15.648Z,97976.13
2019-05-21T18:12:31.601Z,97977.61
2019-05-21T18:17:34.186Z,97979.83
2019-05-21T18:22:43.790Z,97979.39
2019-05-21T18:27:51.258Z,97989.22
2019-05-21T18:32:59.217Z,97995.83
2019-05-21T18:38:07.064Z,98005.45
2019-05-21T18:43:14.697Z,98009.91
2019-05-21T18:48:24.818Z,98019.80
2019-05-21T18:53:32.747Z,98029.45
2019-05-21T18:58:40.229Z,98028.90
2019-05-21T19:03:47.822Z,98046.20
2019-05-21T19:08:55.225Z,98052.63
2019-05-21T19:14:02.726Z,98066.29
2019-05-21T19:19:10.157Z,98077.41
2019-05-21T19:24:18.074Z,98083.04
2019-05-21T19:29:25.486Z,98085.72
2019-05-21T19:34:32.952Z,98100.24
2019-05-21T19:39:41.099Z,98124.70
2019-05-21T19:44:49.367Z,98135.94
2019-05-21T19:49:57.318Z,98137.18
2019-05-21T19:55:05.132Z,98141.16
2019-05-21T20:00:13.002Z,98146.71
2019-05-21T20:05:20.663Z,98147.95
2019-05-21T20:10:28.921Z,98157.25
2019-05-21T20:15:37.298Z,98163.49
2019-05-21T20:20:45.538Z,98172.53
2019-05-21T20:25:56.784Z,98179.72
2019-05-21T20:31:03.830Z,98180.63
2019-05-21T20:36:11.293Z,98186.30
2019-05-21T20:41:19.216Z,98192.81
2019-05-21T20:46:28.253Z,98191.88
2019-05-21T20:51:35.928Z,98201.13
2019-05-21T20:56:43.676Z,98199.20
2019-05-21T21:01:51.654Z,98214.86
2019-05-21T21:06:59.244Z,98210.80
2019-05-21T21:12:08.880Z,98223.73
2019-05-21T21:17:17.290Z,98223.19
2019-05-21T21:22:24.757Z,98237.30
2019-05-21T21:27:33.296Z,98228.45
2019-05-21T21:32:41.483Z,98236.72
2019-05-21T21:37:49.105Z,98234.98
2019-05-21T21:42:57.220Z,98243.16
2019-05-21T21:48:05.577Z,98248.98
2019-05-21T21:53:13.891Z,98249.09
2019-05-21T21:58:21.450Z,98253.45
2019-05-21T22:03:32.298Z,98258.77
2019-05-21T22:08:39.850Z,98250.31
2019-05-21T22:13:48.644Z,98257.87
2019-05-21T22:18:57.294Z,98265.67
2019-05-21T22:24:05.221Z,98269.92
2019-05-21T22:29:12.819Z,98266.59
2019-05-21T22:34:21.180Z,98278.25
2019-05-21T22:39:30.746Z,98263.08
2019-05-21T22:44:38.506Z,98264.95
2019-05-21T22:49:45.838Z,98270.72
2019-05-21T22:54:53.280Z,98268.62
2019-05-21T23:00:00.834Z,98282.57
2019-05-21T23:05:09.684Z,98280.39
2019-05-21T23:10:20.057Z,98288.75
2019-05-21T23:15:27.576Z,98285.60
2019-05-21T23:20:54.442Z,98287.59
2019-05-21T23:26:04.000Z,98286.25
2019-05-21T23:31:11.418Z,98284.77
2019-05-21T23:36:19.661Z,98291.31
2019-05-21T23:41:28.870Z,98297.11
2019-05-21T23:46:36.576Z,98293.36
2019-05-21T23:51:45.145Z,98287.05
2019-05-21T23:56:52.951Z,98286.23
